• Join FlightAware (Why Join?)
  • Login
  • US Flag 
01:13AM EDT


 

Airport Tracker/Info


-or-


 

Live Flight TrackerFlight Track Log ✈ N507PD ✈ 23-Apr-2013 ✈ KMOB - KCPS

Flight Track Log - Related Links

Times and Time Zones

All times are in EDT time to prevent confusion due to time zone crossing. See the N507PD flight status page for this flight to view local times or setup timezone preferences in your user account.

Time Position Orientation Groundspeed Altitude Reporting Facility
EDT Latitude Longitude Course Direction KTS MPH feet Rate Location/Type
04:53PM 30.6086 -88.2678 344° North 244 281 6,300  Level Houston Center
04:54PM 30.6667 -88.3164 324° Northwest 277 319 9,300 1,740 Climbing Houston Center
04:55PM 30.7517 -88.3361 349° North 305 351 10,000 1,740 Climbing Houston Center
04:56PM 30.8561 -88.3644 347° North 319 367 12,900 3,000 Climbing Houston Center
04:57PM 30.9414 -88.3892 346° North 314 361 16,200 2,760 Climbing Houston Center
04:58PM 31.2295 -88.4154 344° North  Level FlightAware Approximate
04:58PM 31.0264 -88.4131 346° North 310 357 18,700  Level Houston Center
04:59PM 31.1139 -88.4392 346° North 318 366 21,300 2,160 Climbing Houston Center
05:00PM 31.2022 -88.4647 346° North 323 372 23,300 1,920 Climbing Houston Center
05:01PM 31.2928 -88.4911 346° North 332 382 25,400 1,980 Climbing Houston Center
05:02PM 31.3850 -88.5172 346° North 337 388 27,400 1,920 Climbing Houston Center
05:03PM 31.4758 -88.5431 346° North 336 387 29,400 2,100 Climbing Houston Center
05:04PM 31.5847 -88.5739 346° North 335 386 31,800 1,860 Climbing Houston Center
05:05PM 31.6728 -88.6003 346° North 329 379 33,300 1,440 Climbing Houston Center
05:06PM 31.7644 -88.6258 347° North 334 384 34,800 1,440 Climbing Houston Center
05:07PM 31.8572 -88.6531 346° North 340 391 36,300 1,200 Climbing Houston Center
05:08PM 31.9486 -88.6778 347° North 335 386 37,300 960 Climbing Memphis Center
05:09PM 32.0408 -88.7056 346° North 335 386 38,300 960 Climbing Memphis Center
05:10PM 32.1331 -88.7333 346° North 335 386 39,300 840 Climbing Memphis Center
05:11PM 32.2233 -88.7586 347° North 335 386 40,000 300 Climbing Memphis Center
05:12PM 32.3300 -88.7911 346° North 346 398 40,000  Level Memphis Center
05:13PM 32.4306 -88.8142 349° North 353 406 40,000  Level Memphis Center
05:14PM 32.5311 -88.8344 350° North 363 418 40,000  Level Memphis Center
05:15PM 32.6336 -88.8550 350° North 369 425 40,000  Level Memphis Center
05:16PM 32.7383 -88.8778 350° North 369 425 40,000  Level Memphis Center
05:17PM 32.8386 -88.8983 350° North 369 425 40,000  Level Memphis Center
05:18PM 32.9392 -88.9192 350° North 374 430 40,000  Level Memphis Center
05:19PM 33.0417 -88.9397 350° North 374 430 40,000  Level Memphis Center
05:20PM 33.1442 -88.9603 350° North 374 430 40,000  Level Memphis Center
05:21PM 33.2447 -88.9836 349° North 369 425 40,000  Level Memphis Center
05:22PM 33.3472 -89.0044 350° North 369 425 40,000  Level Memphis Center
05:23PM 33.4497 -89.0253 350° North 369 425 40,000  Level Memphis Center
05:24PM 33.5439 -89.0461 350° North 374 430 40,000  Level Memphis Center
05:25PM 33.6464 -89.0672 350° North 374 430 40,000  Level Memphis Center
05:26PM 33.7531 -89.0881 351° North 374 430 40,000  Level Memphis Center
05:27PM 33.8575 -89.1114 349° North 374 430 40,000  Level Memphis Center
05:28PM 33.9622 -89.1325 351° North 374 430 40,000  Level Memphis Center
05:29PM 34.0644 -89.1536 350° North 374 430 40,000  Level Memphis Center
05:30PM 34.1692 -89.1772 349° North 374 430 40,000  Level Memphis Center
05:31PM 34.2778 -89.2008 350° North 379 436 40,000  Level Memphis Center
05:32PM 34.3825 -89.2222 350° North 379 436 40,000  Level Memphis Center
05:33PM 34.4847 -89.2433 350° North 374 430 40,000  Level Memphis Center
05:34PM 34.5894 -89.2647 350° North 374 430 40,000  Level Memphis Center
05:35PM 34.6939 -89.2861 350° North 374 430 40,000  Level Memphis Center
05:36PM 34.8006 -89.3100 350° North 374 430 40,000  Level Memphis Center
05:37PM 34.9028 -89.3267 352° North 374 430 40,000  Level Memphis Center
05:38PM 35.0075 -89.3481 351° North 374 430 40,000  Level Memphis Center
05:39PM 35.1139 -89.3747 348° North 374 430 40,000  Level Memphis Center
05:40PM 35.2206 -89.3989 350° North 379 436 40,000  Level Memphis Center
05:41PM 35.3292 -89.4206 351° North 385 443 40,000  Level Memphis Center
05:42PM 35.4358 -89.4447 350° North 390 449 40,000  Level Memphis Center
05:43PM 35.5444 -89.4692 350° North 390 449 40,000  Level Memphis Center
05:44PM 35.6508 -89.4933 350° North 390 449 40,000  Level Memphis Center
05:45PM 35.7658 -89.5203 349° North 390 449 40,000  Level Memphis Center
05:46PM 35.8722 -89.5425 350° North 390 449 40,000  Level Memphis Center
05:47PM 35.9767 -89.5669 349° North 390 449 40,000  Level Memphis Center
05:48PM 36.0811 -89.5917 349° North 390 449 40,000  Level Memphis Center
05:49PM 36.1897 -89.6139 351° North 390 449 40,000  Level Memphis Center
05:50PM 36.2942 -89.6411 348° North 390 449 40,000 -60 Level Memphis Center
05:51PM 36.4006 -89.6658 349° North 390 449 39,900 -600 Descending Memphis Center
05:52PM 36.5111 -89.6883 351° North 396 456 38,800 -1,020 Descending Memphis Center
05:53PM 36.6258 -89.7131 350° North 396 456 37,900 -1,080 Descending Memphis Center
05:54PM 36.7364 -89.7381 350° North 401 461 36,700 -1,560 Descending Memphis Center
05:56PM 36.9381 -89.7769 351° North 403 464 33,400 -2,100 Descending Kansas City Center
05:57PM 37.0464 -89.8064 348° North 399 459 30,700 -2,760 Descending Kansas City Center
05:58PM 37.1528 -89.8500 342° North 400 460 27,900 -2,700 Descending Kansas City Center
05:59PM 37.2589 -89.8886 344° North 398 458 25,200 -1,920 Descending Kansas City Center
06:00PM 37.3589 -89.9269 343° North 381 438 24,000 -900 Descending Kansas City Center
06:01PM 37.4775 -89.9686 344° North 371 427 23,400 -1,260 Descending Kansas City Center
06:02PM 37.5794 -90.0042 345° North 378 435 21,400 -2,160 Descending Kansas City Center
06:03PM 37.6783 -90.0275 349° North 378 435 19,100 -2,400 Descending Kansas City Center
06:04PM 37.7814 -90.0519 349° North 377 434 16,500 -2,700 Descending Kansas City Center
06:06PM 37.8981 -90.0069 17° North 333 383 13,300 -2,760 Descending FAA TRACON SMA TRACON (SMA)
06:06PM 37.9244 -90.0119 351° North 317 365 12,500 -2,640 Descending FAA TRACON SMA TRACON (SMA)
06:06PM 37.9544 -90.0192 349° North 294 338 11,500 -2,520 Descending FAA TRACON SMA TRACON (SMA)
06:07PM 37.9783 -90.0208 357° North 279 321 10,800 -2,520 Descending FAA TRACON SMA TRACON (SMA)
06:07PM 38.0008 -90.0250 352° North 268 308 9,900 -3,120 Descending FAA TRACON SMA TRACON (SMA)
06:07PM 38.0294 -90.0294 353° North 267 307 8,800 -3,000 Descending FAA TRACON SMA TRACON (SMA)
06:08PM 38.0517 -90.0347 349° North 266 306 7,900 -2,580 Descending FAA TRACON SMA TRACON (SMA)
06:08PM 38.0733 -90.0425 344° North 262 302 7,100 -2,640 Descending FAA TRACON SMA TRACON (SMA)
06:08PM 38.0972 -90.0572 334° Northwest 251 289 6,100 -2,400 Descending FAA TRACON SMA TRACON (SMA)
06:09PM 38.1136 -90.0742 321° Northwest 246 283 5,500 -1,800 Descending FAA TRACON SMA TRACON (SMA)
06:09PM 38.1344 -90.0908 328° Northwest 234 269 4,900 -1,620 Descending FAA TRACON SMA TRACON (SMA)
06:09PM 38.1506 -90.1050 325° Northwest 228 262 4,400 -1,500 Descending FAA TRACON SMA TRACON (SMA)
06:10PM 38.1656 -90.1211 320° Northwest 227 261 3,900 -1,800 Descending FAA TRACON SMA TRACON (SMA)
06:10PM 38.1856 -90.1381 326° Northwest 226 260 3,200 -1,500 Descending FAA TRACON SMA TRACON (SMA)
06:10PM 38.2011 -90.1503 328° Northwest 222 255 2,900 -480 Descending FAA TRACON SMA TRACON (SMA)
06:11PM 38.2189 -90.1478 North 218 251 2,900  Level FAA TRACON SMA TRACON (SMA)
06:11PM 38.2378 -90.1319 33° Northeast 225 259 2,900  Level FAA TRACON SMA TRACON (SMA)
06:11PM 38.2519 -90.1142 45° Northeast 226 260 2,900  Level FAA TRACON SMA TRACON (SMA)
06:12PM 38.2672 -90.0956 44° Northeast 236 272 2,900  Level FAA TRACON SMA TRACON (SMA)
06:12PM 38.2822 -90.0778 43° Northeast 240 276 2,900  Level FAA TRACON SMA TRACON (SMA)
06:12PM 38.3003 -90.0553 44° Northeast 237 273 2,900  Level FAA TRACON SMA TRACON (SMA)
06:13PM 38.3142 -90.0372 46° Northeast 231 266 2,900  Level FAA TRACON SMA TRACON (SMA)
06:13PM 38.3289 -90.0128 52° Northeast 230 265 2,900  Level FAA TRACON SMA TRACON (SMA)
06:13PM 38.3372 -89.9922 63° Northeast 222 255 2,900 -180 Level FAA TRACON SMA TRACON (SMA)
06:14PM 38.3425 -89.9700 73° East 218 251 2,800 -480 Descending FAA TRACON SMA TRACON (SMA)
06:14PM 38.3489 -89.9417 74° East 216 249 2,600 -600 Descending FAA TRACON SMA TRACON (SMA)
06:14PM 38.3558 -89.9181 69° East 219 252 2,400 -300 Descending FAA TRACON SMA TRACON (SMA)
06:15PM 38.3683 -89.9056 38° Northeast 227 261 2,400 120 Level FAA TRACON SMA TRACON (SMA)
06:15PM 38.3892 -89.9019 North 212 244 2,500  Climbing FAA TRACON SMA TRACON (SMA)
06:15PM 38.4064 -89.9050 352° North 202 232 2,400 -180 Descending FAA TRACON SMA TRACON (SMA)
06:16PM 38.4200 -89.9125 337° Northwest 187 215 2,400  Level FAA TRACON SMA TRACON (SMA)
06:16PM 38.4408 -89.9192 346° North 194 223 2,400  Level FAA TRACON SMA TRACON (SMA)
06:16PM 38.4556 -89.9286 333° Northwest 197 227 2,400  Level FAA TRACON SMA TRACON (SMA)
06:17PM 38.4708 -89.9394 331° Northwest 203 234 2,400 120 Level FAA TRACON SMA TRACON (SMA)
06:17PM 38.4892 -89.9525 331° Northwest 199 229 2,500 120 Climbing FAA TRACON SMA TRACON (SMA)
06:17PM 38.4989 -89.9661 312° West 176 203 2,500  Level FAA TRACON SMA TRACON (SMA)
06:18PM 38.5058 -89.9797 303° West 154 177 2,500 -480 Level FAA TRACON SMA TRACON (SMA)
06:18PM 38.5133 -89.9975 298° West 147 169 2,200 -900 Descending FAA TRACON SMA TRACON (SMA)
06:18PM 38.5203 -90.0108 304° West 148 170 1,900 -900 Descending FAA TRACON SMA TRACON (SMA)
06:19PM 38.5264 -90.0219 305° West 132 152 1,600 -780 Descending FAA TRACON SMA TRACON (SMA)
06:19PM 38.5317 -90.0325 303° West 116 133 1,400 -780 Descending FAA TRACON SMA TRACON (SMA)
06:19PM 38.5378 -90.0458 300° West 111 128 1,100 -480 Descending FAA TRACON SMA TRACON (SMA)
06:20PM 38.5419 -90.0556 299° West 107 123 1,100 -300 Level FAA TRACON SMA TRACON (SMA)
06:20PM 38.5481 -90.0667 305° West 102 117 900 -300 Descending FAA TRACON SMA TRACON (SMA)
06:20PM 38.5481 -90.0667 150° Southeast 102 117 900  Level FAA TRACON SMA TRACON (SMA)